sensor_id;sensor_type;location;lat;lon;timestamp;pressure;altitude;pressure_sealevel;temperature;humidity
55757;BME280;41676;44.610;44.078;2023-12-07T00:01:54;100889.63;;;1.38;100.00
55757;BME280;41676;44.610;44.078;2023-12-07T00:06:55;100884.66;;;1.33;100.00
55757;BME280;41676;44.610;44.078;2023-12-07T00:11:55;100836.66;;;1.06;100.00
55757;BME280;41676;44.610;44.078;2023-12-07T00:16:56;100836.84;;;1.03;100.00
55757;BME280;41676;44.610;44.078;2023-12-07T00:21:57;100882.03;;;1.33;100.00
55757;BME280;41676;44.610;44.078;2023-12-07T00:26:58;100833.66;;;1.12;100.00
55757;BME280;41676;44.610;44.078;2023-12-07T00:31:59;100882.22;;;1.45;100.00
55757;BME280;41676;44.610;44.078;2023-12-07T00:37:00;100890.66;;;1.35;100.00
55757;BME280;41676;44.610;44.078;2023-12-07T00:42:01;100877.84;;;1.31;100.00
55757;BME280;41676;44.610;44.078;2023-12-07T00:47:03;100889.25;;;1.30;100.00
55757;BME280;41676;44.610;44.078;2023-12-07T00:52:04;100832.38;;;1.05;100.00
55757;BME280;41676;44.610;44.078;2023-12-07T00:57:08;100836.66;;;1.06;100.00
55757;BME280;41676;44.610;44.078;2023-12-07T01:02:09;100898.59;;;1.34;100.00
55757;BME280;41676;44.610;44.078;2023-12-07T01:07:09;100899.81;;;1.28;100.00
55757;BME280;41676;44.610;44.078;2023-12-07T01:12:10;100909.25;;;1.31;100.00
55757;BME280;41676;44.610;44.078;2023-12-07T01:17:11;100905.91;;;1.29;100.00
55757;BME280;41676;44.610;44.078;2023-12-07T01:22:12;100915.31;;;1.31;100.00
55757;BME280;41676;44.610;44.078;2023-12-07T01:27:13;100923.28;;;1.30;100.00
55757;BME280;41676;44.610;44.078;2023-12-07T01:32:14;100902.25;;;1.17;100.00
55757;BME280;41676;44.610;44.078;2023-12-07T01:37:15;100914.03;;;1.24;100.00
55757;BME280;41676;44.610;44.078;2023-12-07T01:42:15;100886.94;;;1.11;100.00
55757;BME280;41676;44.610;44.078;2023-12-07T01:47:16;100893.19;;;1.08;100.00
55757;BME280;41676;44.610;44.078;2023-12-07T01:52:17;100943.38;;;1.29;100.00
55757;BME280;41676;44.610;44.078;2023-12-07T01:57:19;100931.91;;;1.32;100.00
55757;BME280;41676;44.610;44.078;2023-12-07T02:02:21;100958.91;;;1.32;100.00
55757;BME280;41676;44.610;44.078;2023-12-07T02:07:23;100953.09;;;1.27;100.00
55757;BME280;41676;44.610;44.078;2023-12-07T02:12:24;100959.81;;;1.31;100.00
55757;BME280;41676;44.610;44.078;2023-12-07T02:22:53;100981.16;;;1.40;100.00
55757;BME280;41676;44.610;44.078;2023-12-07T02:27:54;100936.09;;;1.06;100.00
55757;BME280;41676;44.610;44.078;2023-12-07T02:32:55;100955.22;;;1.06;100.00
55757;BME280;41676;44.610;44.078;2023-12-07T02:37:56;100901.09;;;0.64;100.00
55757;BME280;41676;44.610;44.078;2023-12-07T02:42:59;100991.59;;;1.11;100.00
55757;BME280;41676;44.610;44.078;2023-12-07T02:48:00;101003.13;;;1.23;100.00
55757;BME280;41676;44.610;44.078;2023-12-07T02:53:01;101006.44;;;1.10;100.00
55757;BME280;41676;44.610;44.078;2023-12-07T02:58:03;101010.63;;;0.99;100.00
55757;BME280;41676;44.610;44.078;2023-12-07T03:03:04;100997.16;;;0.90;100.00
55757;BME280;41676;44.610;44.078;2023-12-07T03:08:05;101005.84;;;0.91;100.00
55757;BME280;41676;44.610;44.078;2023-12-07T03:13:05;101015.31;;;0.94;100.00
55757;BME280;41676;44.610;44.078;2023-12-07T03:18:06;101019.88;;;0.90;100.00
55757;BME280;41676;44.610;44.078;2023-12-07T03:23:07;101020.97;;;0.86;100.00
55757;BME280;41676;44.610;44.078;2023-12-07T03:28:08;101038.44;;;0.85;100.00
55757;BME280;41676;44.610;44.078;2023-12-07T03:33:09;101014.59;;;0.76;100.00
55757;BME280;41676;44.610;44.078;2023-12-07T03:38:10;101035.06;;;0.83;100.00
55757;BME280;41676;44.610;44.078;2023-12-07T03:43:11;100986.91;;;0.41;100.00
55757;BME280;41676;44.610;44.078;2023-12-07T03:48:12;101030.88;;;0.65;100.00
55757;BME280;41676;44.610;44.078;2023-12-07T03:53:13;101046.34;;;0.70;100.00
55757;BME280;41676;44.610;44.078;2023-12-07T03:58:14;101013.22;;;0.38;100.00
55757;BME280;41676;44.610;44.078;2023-12-07T04:03:15;101065.47;;;0.70;100.00
55757;BME280;41676;44.610;44.078;2023-12-07T04:08:16;101068.94;;;0.71;100.00
55757;BME280;41676;44.610;44.078;2023-12-07T04:13:17;101030.09;;;0.49;100.00
55757;BME280;41676;44.610;44.078;2023-12-07T04:18:19;101083.44;;;0.76;100.00
55757;BME280;41676;44.610;44.078;2023-12-07T04:23:19;101084.19;;;0.78;100.00
55757;BME280;41676;44.610;44.078;2023-12-07T04:28:21;101060.94;;;0.58;100.00
55757;BME280;41676;44.610;44.078;2023-12-07T04:33:21;101074.59;;;0.63;100.00
55757;BME280;41676;44.610;44.078;2023-12-07T04:38:22;101052.69;;;0.50;100.00
55757;BME280;41676;44.610;44.078;2023-12-07T04:43:23;101069.69;;;0.57;100.00
55757;BME280;41676;44.610;44.078;2023-12-07T04:48:24;101092.63;;;0.67;100.00
55757;BME280;41676;44.610;44.078;2023-12-07T04:53:26;101099.19;;;0.75;100.00
55757;BME280;41676;44.610;44.078;2023-12-07T04:58:26;101101.81;;;0.75;100.00
55757;BME280;41676;44.610;44.078;2023-12-07T05:03:28;101097.63;;;0.72;100.00
55757;BME280;41676;44.610;44.078;2023-12-07T05:08:28;101105.03;;;0.64;100.00
55757;BME280;41676;44.610;44.078;2023-12-07T05:13:29;101102.09;;;0.70;100.00
55757;BME280;41676;44.610;44.078;2023-12-07T05:18:30;101107.56;;;0.65;100.00
55757;BME280;41676;44.610;44.078;2023-12-07T05:23:31;101074.53;;;0.49;100.00
55757;BME280;41676;44.610;44.078;2023-12-07T05:28:31;101107.31;;;0.70;100.00
55757;BME280;41676;44.610;44.078;2023-12-07T05:33:32;101103.75;;;0.71;100.00
55757;BME280;41676;44.610;44.078;2023-12-07T05:38:33;101112.38;;;0.73;100.00
55757;BME280;41676;44.610;44.078;2023-12-07T05:43:34;101111.00;;;0.82;100.00
55757;BME280;41676;44.610;44.078;2023-12-07T05:48:35;101123.09;;;0.84;100.00
55757;BME280;41676;44.610;44.078;2023-12-07T05:53:36;101126.25;;;0.89;100.00
55757;BME280;41676;44.610;44.078;2023-12-07T05:58:37;101077.78;;;0.68;100.00
55757;BME280;41676;44.610;44.078;2023-12-07T06:03:38;101099.19;;;0.75;100.00
55757;BME280;41676;44.610;44.078;2023-12-07T06:08:39;101132.25;;;0.91;100.00
55757;BME280;41676;44.610;44.078;2023-12-07T06:13:39;101084.88;;;0.66;100.00
55757;BME280;41676;44.610;44.078;2023-12-07T06:18:40;101145.41;;;1.06;100.00
55757;BME280;41676;44.610;44.078;2023-12-07T06:23:41;101146.56;;;1.16;100.00
55757;BME280;41676;44.610;44.078;2023-12-07T06:28:42;101136.44;;;1.10;100.00
55757;BME280;41676;44.610;44.078;2023-12-07T06:33:43;101143.91;;;1.02;100.00
55757;BME280;41676;44.610;44.078;2023-12-07T06:38:45;101110.84;;;0.85;100.00
55757;BME280;41676;44.610;44.078;2023-12-07T06:43:46;101149.81;;;1.05;100.00
55757;BME280;41676;44.610;44.078;2023-12-07T06:48:47;101106.13;;;0.76;100.00
55757;BME280;41676;44.610;44.078;2023-12-07T06:53:47;101141.94;;;1.05;100.00
55757;BME280;41676;44.610;44.078;2023-12-07T06:58:48;101159.09;;;1.11;100.00
55757;BME280;41676;44.610;44.078;2023-12-07T07:03:49;101157.38;;;1.10;100.00
55757;BME280;41676;44.610;44.078;2023-12-07T07:08:50;101152.91;;;1.12;100.00
55757;BME280;41676;44.610;44.078;2023-12-07T07:13:50;101157.59;;;1.21;100.00
55757;BME280;41676;44.610;44.078;2023-12-07T07:18:51;101155.59;;;1.41;100.00
55757;BME280;41676;44.610;44.078;2023-12-07T07:23:52;101147.94;;;1.37;100.00
55757;BME280;41676;44.610;44.078;2023-12-07T07:28:53;101141.78;;;1.39;100.00
55757;BME280;41676;44.610;44.078;2023-12-07T07:33:54;101085.69;;;1.12;100.00
55757;BME280;41676;44.610;44.078;2023-12-07T07:38:55;101129.41;;;1.41;100.00
55757;BME280;41676;44.610;44.078;2023-12-07T07:43:55;101128.94;;;1.34;100.00
55757;BME280;41676;44.610;44.078;2023-12-07T07:48:57;101128.28;;;1.30;100.00
55757;BME280;41676;44.610;44.078;2023-12-07T07:53:59;101119.00;;;1.25;100.00
55757;BME280;41676;44.610;44.078;2023-12-07T07:59:00;101076.03;;;0.99;100.00
55757;BME280;41676;44.610;44.078;2023-12-07T08:04:01;101134.81;;;1.23;100.00
55757;BME280;41676;44.610;44.078;2023-12-07T08:09:02;101128.66;;;1.24;100.00
55757;BME280;41676;44.610;44.078;2023-12-07T08:14:02;101131.84;;;1.29;100.00
55757;BME280;41676;44.610;44.078;2023-12-07T08:19:03;101133.53;;;1.30;100.00
55757;BME280;41676;44.610;44.078;2023-12-07T08:24:04;101127.53;;;1.28;100.00
55757;BME280;41676;44.610;44.078;2023-12-07T08:29:06;101016.75;;;0.83;100.00
55757;BME280;41676;44.610;44.078;2023-12-07T08:34:07;101107.16;;;1.33;100.00
55757;BME280;41676;44.610;44.078;2023-12-07T08:39:07;101093.13;;;1.34;100.00
55757;BME280;41676;44.610;44.078;2023-12-07T08:44:10;101055.53;;;1.21;100.00
55757;BME280;41676;44.610;44.078;2023-12-07T08:49:11;101093.72;;;1.40;100.00
55757;BME280;41676;44.610;44.078;2023-12-07T08:54:12;101080.03;;;1.34;100.00
55757;BME280;41676;44.610;44.078;2023-12-07T08:59:13;101068.47;;;1.39;100.00
55757;BME280;41676;44.610;44.078;2023-12-07T09:04:14;101086.06;;;1.51;100.00
55757;BME280;41676;44.610;44.078;2023-12-07T09:09:15;101081.31;;;1.57;100.00
55757;BME280;41676;44.610;44.078;2023-12-07T09:14:15;101008.63;;;1.32;100.00
55757;BME280;41676;44.610;44.078;2023-12-07T09:19:16;101056.06;;;1.56;100.00
55757;BME280;41676;44.610;44.078;2023-12-07T09:24:17;101054.75;;;1.78;100.00
55757;BME280;41676;44.610;44.078;2023-12-07T09:29:18;101049.59;;;1.76;100.00
55757;BME280;41676;44.610;44.078;2023-12-07T09:34:18;101040.25;;;1.72;100.00
55757;BME280;41676;44.610;44.078;2023-12-07T09:39:19;101056.41;;;1.93;100.00
55757;BME280;41676;44.610;44.078;2023-12-07T09:44:20;101055.09;;;2.00;100.00
55757;BME280;41676;44.610;44.078;2023-12-07T09:49:21;100988.81;;;1.71;100.00
55757;BME280;41676;44.610;44.078;2023-12-07T09:54:23;101052.84;;;2.09;100.00
55757;BME280;41676;44.610;44.078;2023-12-07T09:59:24;101056.69;;;2.03;100.00
55757;BME280;41676;44.610;44.078;2023-12-07T10:04:24;100992.91;;;1.61;100.00
55757;BME280;41676;44.610;44.078;2023-12-07T10:09:26;101049.50;;;2.07;100.00
55757;BME280;41676;44.610;44.078;2023-12-07T10:14:27;101019.09;;;1.75;100.00
55757;BME280;41676;44.610;44.078;2023-12-07T10:19:28;101065.31;;;1.76;100.00
55757;BME280;41676;44.610;44.078;2023-12-07T10:24:29;101061.59;;;1.80;100.00
55757;BME280;41676;44.610;44.078;2023-12-07T10:29:35;100973.47;;;1.22;100.00
55757;BME280;41676;44.610;44.078;2023-12-07T10:34:36;101087.22;;;1.75;100.00
55757;BME280;41676;44.610;44.078;2023-12-07T10:39:37;101077.13;;;1.83;100.00
55757;BME280;41676;44.610;44.078;2023-12-07T10:44:41;101072.72;;;1.84;100.00
55757;BME280;41676;44.610;44.078;2023-12-07T10:49:46;101071.28;;;1.64;100.00
55757;BME280;41676;44.610;44.078;2023-12-07T10:55:14;101055.78;;;1.47;100.00
55757;BME280;41676;44.610;44.078;2023-12-07T11:00:16;101028.91;;;1.14;100.00
55757;BME280;41676;44.610;44.078;2023-12-07T11:05:17;101084.47;;;1.48;100.00
55757;BME280;41676;44.610;44.078;2023-12-07T11:10:23;101092.72;;;1.56;100.00
55757;BME280;41676;44.610;44.078;2023-12-07T11:15:26;101097.31;;;1.53;100.00
55757;BME280;41676;44.610;44.078;2023-12-07T11:20:43;101092.06;;;1.53;100.00
55757;BME280;41676;44.610;44.078;2023-12-07T11:25:46;101018.22;;;1.03;100.00
55757;BME280;41676;44.610;44.078;2023-12-07T11:30:47;101016.13;;;0.94;100.00
55757;BME280;41676;44.610;44.078;2023-12-07T11:41:01;101111.38;;;1.36;100.00
55757;BME280;41676;44.610;44.078;2023-12-07T11:46:03;101117.28;;;1.40;100.00
55757;BME280;41676;44.610;44.078;2023-12-07T11:51:05;101103.78;;;1.31;100.00
55757;BME280;41676;44.610;44.078;2023-12-07T11:56:09;101053.25;;;1.01;100.00
55757;BME280;41676;44.610;44.078;2023-12-07T12:01:14;101071.19;;;1.07;100.00
55757;BME280;41676;44.610;44.078;2023-12-07T12:06:15;101112.97;;;1.39;100.00
55757;BME280;41676;44.610;44.078;2023-12-07T12:11:16;101110.44;;;1.37;100.00
55757;BME280;41676;44.610;44.078;2023-12-07T12:16:16;101118.81;;;1.44;100.00
55757;BME280;41676;44.610;44.078;2023-12-07T12:21:17;101106.03;;;1.37;100.00
55757;BME280;41676;44.610;44.078;2023-12-07T12:26:18;101062.06;;;1.14;100.00
55757;BME280;41676;44.610;44.078;2023-12-07T12:31:20;101107.69;;;1.24;100.00
55757;BME280;41676;44.610;44.078;2023-12-07T12:36:23;101132.41;;;1.34;100.00
55757;BME280;41676;44.610;44.078;2023-12-07T12:41:27;101124.84;;;1.30;100.00
55757;BME280;41676;44.610;44.078;2023-12-07T12:46:31;101072.84;;;0.94;100.00
55757;BME280;41676;44.610;44.078;2023-12-07T12:51:33;101133.88;;;1.24;100.00
55757;BME280;41676;44.610;44.078;2023-12-07T12:56:34;101015.25;;;0.49;100.00
55757;BME280;41676;44.610;44.078;2023-12-07T13:01:35;101141.66;;;1.26;100.00
55757;BME280;41676;44.610;44.078;2023-12-07T13:06:39;101092.22;;;0.75;100.00
55757;BME280;41676;44.610;44.078;2023-12-07T13:11:40;101161.53;;;1.14;100.00
55757;BME280;41676;44.610;44.078;2023-12-07T13:16:41;101127.97;;;0.75;100.00
55757;BME280;41676;44.610;44.078;2023-12-07T13:21:42;101193.63;;;1.02;100.00
55757;BME280;41676;44.610;44.078;2023-12-07T13:26:44;101194.03;;;0.94;100.00
55757;BME280;41676;44.610;44.078;2023-12-07T13:31:45;101165.66;;;0.86;100.00
55757;BME280;41676;44.610;44.078;2023-12-07T13:36:47;101187.78;;;0.97;100.00
55757;BME280;41676;44.610;44.078;2023-12-07T13:41:48;101205.00;;;1.01;100.00
55757;BME280;41676;44.610;44.078;2023-12-07T13:46:49;101208.28;;;1.04;100.00
55757;BME280;41676;44.610;44.078;2023-12-07T13:51:50;101209.81;;;1.08;100.00
55757;BME280;41676;44.610;44.078;2023-12-07T13:56:51;101202.19;;;1.04;100.00
55757;BME280;41676;44.610;44.078;2023-12-07T14:01:52;101182.56;;;0.97;100.00
55757;BME280;41676;44.610;44.078;2023-12-07T14:12:10;101208.97;;;1.08;100.00
55757;BME280;41676;44.610;44.078;2023-12-07T14:17:16;101211.75;;;1.05;100.00
55757;BME280;41676;44.610;44.078;2023-12-07T14:22:20;101213.44;;;1.06;100.00
55757;BME280;41676;44.610;44.078;2023-12-07T14:27:21;101201.78;;;0.96;100.00
55757;BME280;41676;44.610;44.078;2023-12-07T14:32:22;101207.78;;;0.98;100.00
55757;BME280;41676;44.610;44.078;2023-12-07T14:37:23;101215.47;;;1.01;100.00
55757;BME280;41676;44.610;44.078;2023-12-07T14:42:24;101222.28;;;1.03;100.00
55757;BME280;41676;44.610;44.078;2023-12-07T14:47:25;101193.88;;;0.81;100.00
55757;BME280;41676;44.610;44.078;2023-12-07T14:52:26;101236.38;;;1.01;100.00
55757;BME280;41676;44.610;44.078;2023-12-07T14:57:26;101248.56;;;1.02;100.00
55757;BME280;41676;44.610;44.078;2023-12-07T15:02:27;101270.91;;;1.07;100.00
55757;BME280;41676;44.610;44.078;2023-12-07T15:07:28;101262.31;;;1.05;100.00
55757;BME280;41676;44.610;44.078;2023-12-07T15:12:28;101261.47;;;1.05;100.00
55757;BME280;41676;44.610;44.078;2023-12-07T15:17:29;101269.22;;;1.06;100.00
55757;BME280;41676;44.610;44.078;2023-12-07T15:22:30;101253.78;;;1.02;100.00
55757;BME280;41676;44.610;44.078;2023-12-07T15:27:31;101280.53;;;1.07;100.00
55757;BME280;41676;44.610;44.078;2023-12-07T15:32:32;101265.94;;;1.03;100.00
55757;BME280;41676;44.610;44.078;2023-12-07T15:37:33;101272.63;;;1.08;100.00
55757;BME280;41676;44.610;44.078;2023-12-07T15:42:34;101226.59;;;0.73;100.00
55757;BME280;41676;44.610;44.078;2023-12-07T15:47:35;101243.19;;;0.72;100.00
55757;BME280;41676;44.610;44.078;2023-12-07T15:52:36;101234.94;;;0.63;100.00
55757;BME280;41676;44.610;44.078;2023-12-07T15:57:37;101284.31;;;1.01;100.00
55757;BME280;41676;44.610;44.078;2023-12-07T16:02:37;101274.97;;;0.97;100.00
55757;BME280;41676;44.610;44.078;2023-12-07T16:07:38;101292.88;;;1.05;100.00
55757;BME280;41676;44.610;44.078;2023-12-07T16:12:39;101302.41;;;1.06;100.00
55757;BME280;41676;44.610;44.078;2023-12-07T16:17:40;101254.19;;;0.78;100.00
55757;BME280;41676;44.610;44.078;2023-12-07T16:22:43;101244.41;;;0.66;100.00
55757;BME280;41676;44.610;44.078;2023-12-07T16:27:44;101294.28;;;0.95;100.00
55757;BME280;41676;44.610;44.078;2023-12-07T16:32:45;101312.03;;;1.05;100.00
55757;BME280;41676;44.610;44.078;2023-12-07T16:37:49;101292.59;;;0.94;100.00
55757;BME280;41676;44.610;44.078;2023-12-07T16:42:50;101248.69;;;0.67;100.00
55757;BME280;41676;44.610;44.078;2023-12-07T16:47:51;101285.81;;;0.89;100.00
55757;BME280;41676;44.610;44.078;2023-12-07T16:52:54;101301.34;;;0.93;100.00
55757;BME280;41676;44.610;44.078;2023-12-07T16:57:56;101237.34;;;0.51;100.00
55757;BME280;41676;44.610;44.078;2023-12-07T17:02:56;101294.09;;;0.82;100.00
55757;BME280;41676;44.610;44.078;2023-12-07T17:07:57;101299.69;;;0.91;100.00
55757;BME280;41676;44.610;44.078;2023-12-07T17:12:58;101289.72;;;0.98;100.00
55757;BME280;41676;44.610;44.078;2023-12-07T17:18:01;101292.34;;;0.98;100.00
55757;BME280;41676;44.610;44.078;2023-12-07T17:23:02;101221.25;;;0.58;100.00
55757;BME280;41676;44.610;44.078;2023-12-07T17:28:03;101274.19;;;0.95;100.00
55757;BME280;41676;44.610;44.078;2023-12-07T17:33:04;101285.88;;;1.05;100.00
55757;BME280;41676;44.610;44.078;2023-12-07T17:38:04;101231.72;;;0.74;100.00
55757;BME280;41676;44.610;44.078;2023-12-07T17:43:05;101261.78;;;0.99;100.00
55757;BME280;41676;44.610;44.078;2023-12-07T17:48:06;101268.78;;;0.98;100.00
55757;BME280;41676;44.610;44.078;2023-12-07T17:53:11;101273.97;;;1.00;100.00
55757;BME280;41676;44.610;44.078;2023-12-07T17:58:12;101241.28;;;0.75;100.00
55757;BME280;41676;44.610;44.078;2023-12-07T18:03:13;101236.97;;;0.74;100.00
55757;BME280;41676;44.610;44.078;2023-12-07T18:08:14;101289.66;;;1.00;100.00
55757;BME280;41676;44.610;44.078;2023-12-07T18:13:15;101295.50;;;1.05;100.00
55757;BME280;41676;44.610;44.078;2023-12-07T18:18:17;101299.19;;;1.01;100.00
55757;BME280;41676;44.610;44.078;2023-12-07T18:23:18;101292.78;;;1.06;100.00
55757;BME280;41676;44.610;44.078;2023-12-07T18:28:18;101295.31;;;1.08;100.00
55757;BME280;41676;44.610;44.078;2023-12-07T18:33:20;101303.84;;;1.11;100.00
55757;BME280;41676;44.610;44.078;2023-12-07T18:38:20;101298.84;;;1.07;100.00
55757;BME280;41676;44.610;44.078;2023-12-07T18:43:21;101298.69;;;1.10;100.00
55757;BME280;41676;44.610;44.078;2023-12-07T18:48:23;101307.31;;;1.12;100.00
55757;BME280;41676;44.610;44.078;2023-12-07T18:53:24;101309.75;;;1.15;100.00
55757;BME280;41676;44.610;44.078;2023-12-07T18:58:27;101298.69;;;1.10;100.00
55757;BME280;41676;44.610;44.078;2023-12-07T19:03:28;101251.25;;;0.84;100.00
55757;BME280;41676;44.610;44.078;2023-12-07T19:08:29;101305.34;;;1.16;100.00
55757;BME280;41676;44.610;44.078;2023-12-07T19:13:30;101299.94;;;1.19;100.00
55757;BME280;41676;44.610;44.078;2023-12-07T19:18:31;101289.81;;;1.12;100.00
55757;BME280;41676;44.610;44.078;2023-12-07T19:23:33;101286.19;;;1.15;100.00
55757;BME280;41676;44.610;44.078;2023-12-07T19:28:34;101243.81;;;0.93;100.00
55757;BME280;41676;44.610;44.078;2023-12-07T19:33:35;101283.81;;;1.10;100.00
55757;BME280;41676;44.610;44.078;2023-12-07T19:38:36;101229.06;;;0.76;100.00
55757;BME280;41676;44.610;44.078;2023-12-07T19:43:36;101271.94;;;1.05;100.00
55757;BME280;41676;44.610;44.078;2023-12-07T19:48:37;101275.56;;;1.02;100.00
55757;BME280;41676;44.610;44.078;2023-12-07T19:53:38;101255.13;;;0.93;100.00
55757;BME280;41676;44.610;44.078;2023-12-07T19:58:39;101283.97;;;1.07;100.00
55757;BME280;41676;44.610;44.078;2023-12-07T20:03:39;101240.78;;;0.84;100.00
55757;BME280;41676;44.610;44.078;2023-12-07T20:08:40;101287.31;;;1.11;100.00
55757;BME280;41676;44.610;44.078;2023-12-07T20:13:41;101298.63;;;1.11;100.00
55757;BME280;41676;44.610;44.078;2023-12-07T20:18:42;101283.97;;;1.07;100.00
55757;BME280;41676;44.610;44.078;2023-12-07T20:23:43;101288.88;;;1.13;100.00
55757;BME280;41676;44.610;44.078;2023-12-07T20:28:44;101284.53;;;1.14;100.00
55757;BME280;41676;44.610;44.078;2023-12-07T20:33:46;101249.53;;;0.83;100.00
55757;BME280;41676;44.610;44.078;2023-12-07T20:38:47;101288.22;;;1.10;100.00
55757;BME280;41676;44.610;44.078;2023-12-07T20:43:48;101285.75;;;1.07;100.00
55757;BME280;41676;44.610;44.078;2023-12-07T20:48:49;101258.00;;;0.88;100.00
55757;BME280;41676;44.610;44.078;2023-12-07T20:53:50;101281.91;;;1.14;100.00
55757;BME280;41676;44.610;44.078;2023-12-07T20:58:50;101232.00;;;0.85;100.00
55757;BME280;41676;44.610;44.078;2023-12-07T21:03:53;101278.19;;;1.18;100.00
55757;BME280;41676;44.610;44.078;2023-12-07T21:08:53;101274.53;;;1.21;100.00
55757;BME280;41676;44.610;44.078;2023-12-07T21:13:54;101275.22;;;1.24;100.00
55757;BME280;41676;44.610;44.078;2023-12-07T21:18:55;101264.75;;;1.24;100.00
55757;BME280;41676;44.610;44.078;2023-12-07T21:23:56;101278.44;;;1.29;100.00
55757;BME280;41676;44.610;44.078;2023-12-07T21:28:56;101259.03;;;1.18;100.00
55757;BME280;41676;44.610;44.078;2023-12-07T21:33:57;101268.13;;;1.26;100.00
55757;BME280;41676;44.610;44.078;2023-12-07T21:38:58;101253.44;;;1.24;100.00
55757;BME280;41676;44.610;44.078;2023-12-07T21:43:58;101196.38;;;0.99;100.00
55757;BME280;41676;44.610;44.078;2023-12-07T21:48:59;101217.66;;;1.08;100.00
55757;BME280;41676;44.610;44.078;2023-12-07T21:54:00;101236.56;;;1.29;100.00
55757;BME280;41676;44.610;44.078;2023-12-07T21:59:01;101190.47;;;0.95;100.00
55757;BME280;41676;44.610;44.078;2023-12-07T22:04:02;101198.25;;;0.97;100.00
55757;BME280;41676;44.610;44.078;2023-12-07T22:09:02;101250.53;;;1.28;100.00
55757;BME280;41676;44.610;44.078;2023-12-07T22:14:04;101244.66;;;1.25;100.00
55757;BME280;41676;44.610;44.078;2023-12-07T22:19:05;101235.47;;;1.18;100.00
55757;BME280;41676;44.610;44.078;2023-12-07T22:24:06;101252.44;;;1.26;100.00
55757;BME280;41676;44.610;44.078;2023-12-07T22:29:07;101236.06;;;1.23;100.00
55757;BME280;41676;44.610;44.078;2023-12-07T22:34:08;101238.25;;;1.14;100.00
55757;BME280;41676;44.610;44.078;2023-12-07T22:39:10;101246.59;;;1.21;100.00
55757;BME280;41676;44.610;44.078;2023-12-07T22:44:11;101253.69;;;1.19;100.00
55757;BME280;41676;44.610;44.078;2023-12-07T22:49:15;101252.44;;;1.26;100.00
55757;BME280;41676;44.610;44.078;2023-12-07T22:54:17;101263.25;;;1.20;100.00
55757;BME280;41676;44.610;44.078;2023-12-07T22:59:18;101246.94;;;1.15;100.00
55757;BME280;41676;44.610;44.078;2023-12-07T23:04:19;101256.06;;;1.24;100.00
55757;BME280;41676;44.610;44.078;2023-12-07T23:09:19;101267.69;;;1.34;100.00
55757;BME280;41676;44.610;44.078;2023-12-07T23:14:20;101256.47;;;1.32;100.00
55757;BME280;41676;44.610;44.078;2023-12-07T23:19:21;101253.94;;;1.30;100.00
55757;BME280;41676;44.610;44.078;2023-12-07T23:24:22;101217.56;;;1.10;100.00
55757;BME280;41676;44.610;44.078;2023-12-07T23:29:23;101256.03;;;1.40;100.00
55757;BME280;41676;44.610;44.078;2023-12-07T23:34:23;101242.34;;;1.34;100.00
55757;BME280;41676;44.610;44.078;2023-12-07T23:39:24;101235.75;;;1.43;100.00
55757;BME280;41676;44.610;44.078;2023-12-07T23:44:25;101262.84;;;1.58;100.00
55757;BME280;41676;44.610;44.078;2023-12-07T23:49:26;101266.03;;;1.63;100.00
55757;BME280;41676;44.610;44.078;2023-12-07T23:54:26;101266.53;;;1.70;100.00
55757;BME280;41676;44.610;44.078;2023-12-07T23:59:27;101265.63;;;1.71;100.00
